Time;durP1;ratioP1;P1;durP2;ratioP2;P2;SDS_P1;SDS_P2;PMS_P1;PMS_P2;Temp;Humidity;BMP_temperature;BMP_pressure;BME280_temperature;BME280_humidity;BME280_pressure;Samples;Min_cycle;Max_cycle;Signal;HPM_P1;HPM_P2
2023/01/29 00:00:39;;;;;;;26.63;14.18;;;2.00;99.90;;;;;;4992072;28;20046;-70
2023/01/29 00:03:05;;;;;;;22.98;12.95;;;2.00;99.90;;;;;;4983613;28;20479;-70
2023/01/29 00:05:30;;;;;;;25.17;13.52;;;2.00;99.90;;;;;;4945746;28;20128;-70
2023/01/29 00:07:56;;;;;;;25.88;13.38;;;2.00;99.90;;;;;;4991578;28;20414;-70
2023/01/29 00:10:24;;;;;;;23.17;13.15;;;2.00;99.90;;;;;;4959690;28;20041;-70
2023/01/29 00:12:50;;;;;;;28.17;14.27;;;2.00;99.90;;;;;;4978292;28;20054;-70
2023/01/29 00:15:17;;;;;;;27.02;14.45;;;2.00;99.90;;;;;;4993291;28;20042;-70
2023/01/29 00:17:43;;;;;;;24.98;13.70;;;2.00;99.90;;;;;;4963725;28;20490;-70
2023/01/29 00:20:10;;;;;;;22.80;12.77;;;2.00;99.90;;;;;;4976085;28;20108;-70
2023/01/29 00:22:36;;;;;;;25.70;13.70;;;2.00;99.90;;;;;;4976472;28;20038;-70
2023/01/29 00:25:01;;;;;;;24.92;13.73;;;2.00;99.90;;;;;;4993660;28;20343;-70
2023/01/29 00:27:28;;;;;;;21.80;13.30;;;2.00;99.90;;;;;;4982650;28;20048;-70
2023/01/29 00:30:10;;;;;;;24.50;14.15;;;2.00;99.90;;;;;;4991786;28;20037;-70
2023/01/29 00:32:36;;;;;;;24.90;13.52;;;2.20;99.90;;;;;;4991399;28;20041;-70
2023/01/29 00:35:03;;;;;;;23.80;13.30;;;2.10;99.90;;;;;;4976697;28;20357;-70
2023/01/29 00:37:29;;;;;;;24.92;14.75;;;2.10;99.90;;;;;;4993064;28;20030;-70
2023/01/29 00:39:55;;;;;;;24.48;13.90;;;2.10;99.90;;;;;;4961550;28;20053;-70
2023/01/29 00:45:05;;;;;;;24.00;13.85;;;2.10;99.90;;;;;;4991129;28;20046;-70
2023/01/29 00:47:34;;;;;;;26.85;14.20;;;2.10;99.90;;;;;;4958969;28;20082;-70
2023/01/29 00:50:11;;;;;;;31.90;14.30;;;2.10;99.90;;;;;;4991279;28;20038;-70
2023/01/29 00:52:39;;;;;;;25.48;13.95;;;2.10;99.90;;;;;;4993350;28;20491;-70
2023/01/29 00:55:06;;;;;;;25.35;14.55;;;2.10;99.90;;;;;;4991500;28;20042;-70
2023/01/29 00:57:33;;;;;;;23.65;13.52;;;2.10;99.90;;;;;;4978697;28;20071;-70
2023/01/29 01:00:00;;;;;;;25.17;14.63;;;2.10;99.90;;;;;;4988977;28;20041;-70
2023/01/29 01:05:18;;;;;;;25.70;14.15;;;2.10;99.90;;;;;;4990690;28;20037;-70
2023/01/29 01:07:52;;;;;;;29.38;13.68;;;2.10;99.90;;;;;;4991189;28;20034;-70
2023/01/29 01:10:24;;;;;;;23.33;13.90;;;2.10;99.90;;;;;;4991644;28;20100;-70
2023/01/29 01:12:58;;;;;;;24.92;14.55;;;2.20;99.90;;;;;;4974788;28;20415;-70
2023/01/29 01:15:28;;;;;;;25.50;14.30;;;2.10;99.90;;;;;;4993533;28;20045;-70
2023/01/29 01:17:55;;;;;;;25.13;15.32;;;2.10;99.90;;;;;;4988537;28;20037;-70
2023/01/29 01:20:23;;;;;;;23.42;13.73;;;2.30;99.90;;;;;;4992307;28;20038;-70
2023/01/29 01:22:49;;;;;;;26.58;14.77;;;2.10;99.90;;;;;;4991771;28;20107;-70
2023/01/29 01:25:16;;;;;;;28.33;15.25;;;2.10;99.90;;;;;;4991076;28;20554;-70
2023/01/29 01:27:42;;;;;;;25.48;15.68;;;1.90;99.90;;;;;;4992787;28;20080;-70
2023/01/29 01:30:11;;;;;;;27.17;14.65;;;2.10;99.90;;;;;;4973799;28;20073;-70
2023/01/29 01:32:36;;;;;;;24.50;14.93;;;2.10;99.90;;;;;;5007455;28;20159;-70
2023/01/29 01:35:02;;;;;;;23.98;14.02;;;2.10;99.90;;;;;;4980759;28;20091;-70
2023/01/29 01:37:28;;;;;;;24.42;13.88;;;2.10;99.90;;;;;;4992255;28;20026;-70
2023/01/29 01:39:57;;;;;;;25.52;13.63;;;2.20;99.90;;;;;;4973175;28;20049;-70
2023/01/29 01:42:29;;;;;;;24.83;13.90;;;2.40;99.90;;;;;;4995181;28;20050;-70
2023/01/29 01:45:06;;;;;;;27.88;15.57;;;2.10;99.90;;;;;;4990990;28;20073;-70
2023/01/29 01:47:52;;;;;;;23.58;14.45;;;2.20;99.90;;;;;;4991602;28;20399;-70
2023/01/29 01:50:27;;;;;;;22.48;13.77;;;2.20;99.90;;;;;;4989322;28;20042;-70
2023/01/29 01:53:01;;;;;;;26.25;14.75;;;2.10;99.90;;;;;;4992867;28;20037;-70
2023/01/29 01:55:31;;;;;;;22.83;13.50;;;2.10;99.90;;;;;;4991525;28;20522;-70
2023/01/29 01:58:08;;;;;;;26.27;14.15;;;2.20;99.90;;;;;;4990803;28;20073;-70
2023/01/29 02:00:33;;;;;;;25.48;12.35;;;2.20;99.90;;;;;;4973216;28;20042;-70
2023/01/29 02:11:42;;;;;;;22.65;14.18;;;2.20;99.90;;;;;;4991513;28;20069;-70
2023/01/29 02:14:08;;;;;;;25.05;13.48;;;2.20;99.90;;;;;;4989924;28;20415;-70
2023/01/29 02:16:35;;;;;;;21.98;13.23;;;2.20;99.90;;;;;;4970875;28;20042;-70
2023/01/29 02:19:01;;;;;;;24.63;13.25;;;2.20;99.90;;;;;;4993282;28;20436;-70
2023/01/29 02:21:39;;;;;;;25.05;14.35;;;2.20;99.90;;;;;;4994277;28;20045;-70
2023/01/29 02:24:12;;;;;;;22.60;13.07;;;2.30;99.90;;;;;;4991628;28;20038;-70
2023/01/29 02:27:07;;;;;;;23.73;14.38;;;2.30;99.90;;;;;;4977493;28;20432;-70
2023/01/29 02:29:39;;;;;;;22.98;13.30;;;2.30;99.90;;;;;;4991943;28;20052;-70
2023/01/29 02:32:40;;;;;;;25.45;13.20;;;2.30;99.90;;;;;;4976861;28;20034;-70
2023/01/29 02:35:28;;;;;;;23.23;13.48;;;2.30;99.90;;;;;;4988741;28;20060;-70
2023/01/29 02:38:25;;;;;;;27.52;13.65;;;2.20;99.90;;;;;;4995823;28;20510;-70
2023/01/29 02:41:06;;;;;;;25.58;13.63;;;2.20;99.90;;;;;;4975856;28;20406;-70
2023/01/29 02:43:50;;;;;;;23.08;13.05;;;2.30;99.90;;;;;;4992256;28;20124;-70
2023/01/29 02:46:34;;;;;;;22.13;12.35;;;2.30;99.90;;;;;;4991508;28;20038;-70
2023/01/29 02:49:09;;;;;;;23.23;13.30;;;2.30;99.90;;;;;;4994849;28;20423;-70
2023/01/29 02:51:49;;;;;;;23.75;13.98;;;2.30;99.90;;;;;;4993554;28;20041;-70
2023/01/29 02:54:37;;;;;;;24.52;13.30;;;2.30;99.90;;;;;;4977307;28;20053;-70
2023/01/29 02:57:30;;;;;;;21.55;12.65;;;2.30;99.90;;;;;;4991963;28;20046;-70
2023/01/29 03:00:01;;;;;;;22.98;13.35;;;2.30;99.90;;;;;;4992315;28;20042;-70
2023/01/29 03:02:40;;;;;;;24.30;13.00;;;2.30;99.90;;;;;;4977248;28;20147;-70
2023/01/29 03:05:14;;;;;;;21.67;12.82;;;2.30;99.90;;;;;;4993715;28;20080;-70
2023/01/29 03:07:45;;;;;;;26.90;13.30;;;2.30;99.90;;;;;;4978887;28;20050;-70
2023/01/29 03:10:42;;;;;;;24.85;13.90;;;2.30;99.90;;;;;;4993012;28;20053;-70
2023/01/29 03:13:20;;;;;;;25.45;12.63;;;2.30;99.90;;;;;;4976614;28;20060;-70
2023/01/29 03:15:53;;;;;;;23.75;13.55;;;2.30;99.90;;;;;;5010641;28;20115;-70
2023/01/29 03:18:26;;;;;;;21.52;13.60;;;2.50;99.90;;;;;;4992208;28;20044;-70
2023/01/29 03:21:02;;;;;;;26.17;13.90;;;2.30;99.90;;;;;;4993327;28;20034;-70
2023/01/29 03:32:06;;;;;;;27.85;14.38;;;2.20;99.90;;;;;;4992888;28;20045;-70
2023/01/29 03:34:56;;;;;;;24.23;14.43;;;2.50;99.90;;;;;;4995550;28;20128;-70
2023/01/29 03:37:33;;;;;;;23.88;14.10;;;2.20;99.90;;;;;;4991925;28;20041;-70
2023/01/29 03:40:04;;;;;;;27.30;15.23;;;2.20;99.90;;;;;;4992347;28;20384;-70
2023/01/29 03:42:50;;;;;;;25.92;14.45;;;2.20;99.90;;;;;;4987189;28;20038;-70
2023/01/29 03:45:23;;;;;;;26.70;15.85;;;2.20;99.90;;;;;;4992151;28;20034;-70
2023/01/29 03:48:14;;;;;;;25.75;15.10;;;2.20;99.90;;;;;;4989537;28;20065;-70
2023/01/29 03:50:52;;;;;;;25.15;14.45;;;2.30;99.90;;;;;;4975155;28;20563;-70
2023/01/29 03:53:25;;;;;;;25.13;14.80;;;2.30;99.90;;;;;;5009682;28;20034;-70
2023/01/29 03:56:18;;;;;;;25.08;14.15;;;2.30;99.90;;;;;;4975580;28;20491;-70
2023/01/29 03:58:59;;;;;;;26.17;15.43;;;2.30;99.90;;;;;;4993185;28;20041;-70
2023/01/29 04:01:41;;;;;;;25.65;14.82;;;2.30;99.90;;;;;;4974894;28;20403;-70
2023/01/29 04:04:31;;;;;;;30.83;15.90;;;2.30;99.90;;;;;;4993139;28;20056;-70
2023/01/29 04:07:11;;;;;;;26.75;14.63;;;2.30;99.90;;;;;;4985751;28;20345;-70
2023/01/29 04:09:46;;;;;;;28.00;15.82;;;2.30;99.90;;;;;;4992157;28;20049;-70
2023/01/29 04:12:16;;;;;;;29.25;15.80;;;2.30;99.90;;;;;;4977595;28;20415;-70
2023/01/29 04:14:44;;;;;;;29.48;15.48;;;2.30;99.90;;;;;;4992602;28;20046;-70
2023/01/29 04:17:15;;;;;;;32.70;16.45;;;2.40;99.90;;;;;;4991833;28;20176;-70
2023/01/29 04:19:41;;;;;;;23.50;15.15;;;2.40;99.90;;;;;;4993415;28;20065;-70
2023/01/29 04:22:31;;;;;;;27.17;15.30;;;2.40;99.90;;;;;;4977329;28;20502;-70
2023/01/29 04:25:01;;;;;;;25.95;15.27;;;2.40;99.90;;;;;;4992287;28;20052;-70
2023/01/29 04:27:55;;;;;;;29.65;15.88;;;2.50;99.90;;;;;;4989830;28;20116;-70
2023/01/29 04:30:32;;;;;;;29.00;15.85;;;2.50;99.90;;;;;;4992624;28;20056;-70
2023/01/29 04:33:07;;;;;;;24.77;14.60;;;2.50;99.90;;;;;;4991411;28;20053;-70
2023/01/29 04:35:52;;;;;;;29.00;16.00;;;2.50;99.90;;;;;;5007299;28;20042;-70
2023/01/29 04:38:36;;;;;;;25.85;15.00;;;2.50;99.90;;;;;;4976069;28;20041;-70
2023/01/29 04:41:10;;;;;;;23.58;15.02;;;2.50;99.90;;;;;;4990170;28;20065;-70
2023/01/29 04:43:43;;;;;;;27.10;15.20;;;2.60;99.90;;;;;;4991097;28;20080;-70
2023/01/29 04:46:12;;;;;;;30.95;16.67;;;2.50;99.90;;;;;;4992377;28;20438;-70
2023/01/29 04:48:56;;;;;;;27.50;17.05;;;2.50;99.90;;;;;;4993336;28;20044;-70
2023/01/29 04:51:37;;;;;;;27.65;16.40;;;2.60;99.90;;;;;;4992329;28;20048;-70
2023/01/29 04:54:26;;;;;;;28.88;15.40;;;2.60;99.90;;;;;;4991503;28;20034;-70
2023/01/29 04:57:22;;;;;;;25.75;16.17;;;2.50;99.90;;;;;;4991645;28;20056;-70
2023/01/29 05:00:33;;;;;;;25.42;15.73;;;2.60;99.90;;;;;;4991724;28;20046;-70
2023/01/29 05:03:00;;;;;;;28.45;17.17;;;2.50;99.90;;;;;;4968715;28;20085;-70
2023/01/29 05:05:27;;;;;;;28.00;16.20;;;2.60;99.90;;;;;;4991920;28;20084;-70
2023/01/29 05:07:54;;;;;;;32.45;16.77;;;2.60;99.90;;;;;;4978008;28;20073;-70
2023/01/29 05:10:21;;;;;;;25.63;16.05;;;2.50;99.90;;;;;;4975336;28;20096;-70
2023/01/29 05:12:53;;;;;;;28.73;16.05;;;2.60;99.90;;;;;;4977588;28;20046;-70
2023/01/29 05:15:39;;;;;;;29.70;16.10;;;2.60;99.90;;;;;;4997845;28;20046;-70
2023/01/29 05:18:07;;;;;;;28.73;17.63;;;2.50;99.90;;;;;;4991322;28;20058;-70
2023/01/29 05:20:35;;;;;;;26.05;16.00;;;2.60;99.90;;;;;;4984392;28;20053;-70
2023/01/29 05:23:01;;;;;;;40.55;17.55;;;2.60;99.90;;;;;;4973734;28;20081;-70
2023/01/29 05:25:31;;;;;;;28.77;17.17;;;2.50;99.90;;;;;;5003489;28;20038;-70
2023/01/29 05:28:10;;;;;;;29.00;16.20;;;2.60;99.90;;;;;;4991192;28;20100;-70
2023/01/29 05:30:38;;;;;;;33.38;18.52;;;2.60;99.90;;;;;;4990495;28;20034;-70
2023/01/29 05:33:10;;;;;;;31.20;17.55;;;2.60;99.90;;;;;;4972049;28;20038;-70
2023/01/29 05:35:36;;;;;;;33.20;19.42;;;2.60;99.90;;;;;;4988387;28;20040;-70
2023/01/29 05:38:02;;;;;;;32.38;18.38;;;2.60;99.90;;;;;;4989766;28;20034;-70
2023/01/29 05:40:28;;;;;;;29.38;17.48;;;2.70;99.90;;;;;;4975006;28;20038;-70
2023/01/29 05:42:53;;;;;;;30.20;17.83;;;2.60;99.90;;;;;;4991870;28;20049;-70
2023/01/29 05:45:19;;;;;;;32.25;18.50;;;2.60;99.90;;;;;;4976279;28;20458;-70
2023/01/29 05:47:45;;;;;;;29.75;18.17;;;2.70;99.90;;;;;;4969754;28;20042;-70
2023/01/29 05:50:12;;;;;;;34.05;18.80;;;2.70;99.90;;;;;;5007568;28;20048;-70
2023/01/29 05:52:38;;;;;;;28.42;17.30;;;2.70;99.90;;;;;;4994405;28;20073;-70
2023/01/29 05:55:05;;;;;;;28.85;17.95;;;2.70;99.90;;;;;;4962537;28;20068;-70
2023/01/29 05:57:31;;;;;;;31.13;18.52;;;2.70;99.90;;;;;;4995036;28;20251;-70
2023/01/29 05:59:56;;;;;;;31.63;18.33;;;2.80;99.90;;;;;;5006640;28;20098;-70
2023/01/29 06:02:22;;;;;;;34.63;18.75;;;2.80;99.90;;;;;;4979065;28;20080;-70
2023/01/29 06:04:51;;;;;;;32.70;17.85;;;2.70;99.90;;;;;;4994618;28;20132;-70
2023/01/29 06:07:17;;;;;;;29.90;18.58;;;2.70;99.90;;;;;;4991644;28;20042;-70
2023/01/29 06:09:43;;;;;;;31.38;19.70;;;2.70;99.90;;;;;;4978415;28;20551;-70
2023/01/29 06:12:09;;;;;;;28.80;17.38;;;2.70;99.90;;;;;;4976876;28;20503;-70
2023/01/29 06:14:35;;;;;;;27.88;18.35;;;2.70;99.90;;;;;;4994253;28;20294;-70
2023/01/29 06:17:00;;;;;;;28.30;17.23;;;2.70;99.90;;;;;;4978621;28;20049;-70
2023/01/29 06:19:29;;;;;;;29.30;17.80;;;2.70;99.90;;;;;;4994100;28;20406;-70
2023/01/29 06:21:55;;;;;;;27.83;17.85;;;2.80;99.90;;;;;;4976496;28;20048;-70
2023/01/29 06:24:21;;;;;;;30.58;17.98;;;2.80;99.90;;;;;;4979486;28;20116;-70
2023/01/29 06:26:47;;;;;;;31.00;18.55;;;2.80;99.90;;;;;;4978406;28;20169;-70
2023/01/29 06:29:12;;;;;;;29.38;17.70;;;2.80;99.90;;;;;;4995349;28;20042;-70
2023/01/29 06:31:39;;;;;;;31.85;18.77;;;2.80;99.90;;;;;;4977845;28;20399;-71
2023/01/29 06:34:06;;;;;;;30.30;19.05;;;2.80;99.90;;;;;;4994927;28;20107;-70
2023/01/29 06:36:32;;;;;;;32.70;18.27;;;2.80;99.90;;;;;;4977639;28;20069;-70
2023/01/29 06:38:57;;;;;;;31.17;17.23;;;2.70;99.90;;;;;;4975895;28;20042;-70
2023/01/29 06:41:24;;;;;;;29.13;19.10;;;2.70;99.90;;;;;;4978879;28;20411;-70
2023/01/29 06:43:50;;;;;;;29.85;17.98;;;2.70;99.90;;;;;;4992518;28;20042;-70
2023/01/29 06:46:16;;;;;;;30.58;18.27;;;2.70;99.90;;;;;;4994656;28;20069;-70
2023/01/29 06:48:42;;;;;;;31.30;18.80;;;2.70;99.90;;;;;;4982089;28;20073;-70
2023/01/29 06:51:09;;;;;;;37.15;19.17;;;2.80;99.90;;;;;;4987163;28;20038;-70
2023/01/29 06:53:36;;;;;;;28.00;16.77;;;2.70;99.90;;;;;;4973391;28;20038;-70
2023/01/29 06:56:03;;;;;;;31.67;19.00;;;2.70;99.90;;;;;;4990093;28;20037;-70
2023/01/29 06:58:30;;;;;;;31.63;18.85;;;2.70;99.90;;;;;;4989057;28;20053;-70
2023/01/29 07:01:04;;;;;;;28.83;18.55;;;2.70;99.90;;;;;;4990215;28;20069;-70
2023/01/29 07:03:29;;;;;;;31.25;16.67;;;2.70;99.90;;;;;;4989611;28;20162;-70
2023/01/29 07:05:55;;;;;;;31.45;19.25;;;2.70;99.90;;;;;;4973288;28;20074;-70
2023/01/29 07:08:21;;;;;;;28.35;18.38;;;2.80;99.90;;;;;;4972037;28;20042;-70
2023/01/29 07:10:48;;;;;;;31.80;19.02;;;2.80;99.90;;;;;;4988103;28;20057;-70
2023/01/29 07:13:14;;;;;;;32.30;17.90;;;2.80;99.90;;;;;;4988761;28;20160;-70
2023/01/29 07:15:39;;;;;;;32.00;17.92;;;2.70;99.90;;;;;;4970624;28;20094;-70
2023/01/29 07:18:11;;;;;;;31.40;19.13;;;2.80;99.90;;;;;;4974240;28;20037;-70
2023/01/29 07:20:38;;;;;;;28.27;18.55;;;2.80;99.90;;;;;;4971815;28;20038;-70
2023/01/29 07:23:05;;;;;;;30.20;18.63;;;2.80;99.90;;;;;;4973859;28;20049;-70
2023/01/29 07:25:32;;;;;;;32.35;19.30;;;2.80;99.90;;;;;;4967221;28;20046;-70
2023/01/29 07:28:00;;;;;;;34.03;20.73;;;2.80;99.90;;;;;;4989962;28;20482;-70
2023/01/29 07:30:26;;;;;;;32.28;19.33;;;2.80;99.90;;;;;;4990246;28;20041;-70
2023/01/29 07:32:51;;;;;;;29.10;18.60;;;2.80;99.90;;;;;;4990099;28;20033;-70
2023/01/29 07:35:17;;;;;;;30.40;18.17;;;2.80;99.90;;;;;;4988876;28;20545;-70
2023/01/29 07:37:43;;;;;;;30.55;18.55;;;2.80;99.90;;;;;;4990311;28;20045;-70
2023/01/29 07:40:10;;;;;;;27.75;17.55;;;2.80;99.90;;;;;;4971509;28;20063;-70
2023/01/29 07:42:41;;;;;;;33.30;19.67;;;2.80;99.90;;;;;;4989050;28;20072;-70
2023/01/29 07:45:07;;;;;;;31.27;18.23;;;2.80;99.90;;;;;;4983840;28;20045;-70
2023/01/29 07:47:33;;;;;;;26.98;16.52;;;2.80;99.90;;;;;;4973097;28;20034;-70
2023/01/29 07:49:59;;;;;;;32.15;18.95;;;2.80;99.90;;;;;;5000032;28;20092;-70
2023/01/29 07:52:25;;;;;;;31.42;18.77;;;2.80;99.90;;;;;;4953941;28;20729;-70
2023/01/29 07:54:50;;;;;;;29.58;17.52;;;2.80;99.90;;;;;;4988439;28;20045;-70
2023/01/29 07:57:16;;;;;;;30.23;18.27;;;2.80;99.90;;;;;;4988134;28;20030;-70
2023/01/29 07:59:42;;;;;;;29.98;17.90;;;2.90;99.90;;;;;;4984320;28;20395;-70
2023/01/29 08:02:11;;;;;;;29.33;17.48;;;2.80;99.90;;;;;;4968755;28;20054;-70
2023/01/29 08:04:37;;;;;;;28.95;18.20;;;2.70;99.90;;;;;;4988328;28;20061;-70
2023/01/29 08:07:03;;;;;;;30.55;18.95;;;2.70;99.90;;;;;;4973986;28;20038;-70
2023/01/29 08:09:30;;;;;;;27.40;17.52;;;2.80;99.90;;;;;;4957241;28;20125;-70
2023/01/29 08:11:56;;;;;;;27.73;18.05;;;2.70;99.90;;;;;;5000992;28;20041;-70
2023/01/29 08:14:22;;;;;;;28.27;17.40;;;2.70;99.90;;;;;;4987608;28;20129;-70
2023/01/29 08:16:49;;;;;;;33.38;19.40;;;2.70;99.90;;;;;;4987380;28;20446;-70
2023/01/29 08:19:15;;;;;;;31.70;18.42;;;2.70;99.90;;;;;;4969242;28;20033;-70
2023/01/29 08:21:40;;;;;;;30.10;18.75;;;2.70;99.90;;;;;;4990241;28;20042;-70
2023/01/29 08:24:06;;;;;;;30.00;17.95;;;2.70;99.90;;;;;;4988699;28;20312;-70
2023/01/29 08:26:32;;;;;;;34.58;19.17;;;2.70;99.90;;;;;;4984127;28;20053;-70
2023/01/29 08:28:58;;;;;;;29.83;18.60;;;2.70;99.90;;;;;;4987410;28;20047;-70
2023/01/29 08:31:23;;;;;;;31.80;19.38;;;2.70;99.90;;;;;;4988434;28;20104;-70
2023/01/29 08:33:49;;;;;;;28.27;17.13;;;2.70;99.90;;;;;;4983690;28;20053;-70
2023/01/29 08:36:15;;;;;;;31.25;18.38;;;2.70;99.90;;;;;;4971766;28;20443;-70
2023/01/29 08:38:41;;;;;;;30.67;19.10;;;2.70;99.90;;;;;;4972691;28;20042;-70
2023/01/29 08:41:07;;;;;;;30.33;18.35;;;2.70;99.90;;;;;;4973787;28;20133;-70
2023/01/29 08:43:35;;;;;;;34.85;18.85;;;2.70;99.90;;;;;;4988222;28;20044;-70
2023/01/29 08:46:06;;;;;;;31.02;18.10;;;2.70;99.90;;;;;;4988906;28;20372;-70
2023/01/29 08:48:32;;;;;;;30.63;17.67;;;2.70;99.90;;;;;;4987341;28;20041;-70
2023/01/29 08:50:59;;;;;;;29.60;17.55;;;2.70;99.90;;;;;;4986079;28;20034;-70
2023/01/29 08:53:25;;;;;;;28.98;18.55;;;2.70;99.90;;;;;;4970416;28;20123;-70
2023/01/29 08:55:51;;;;;;;30.85;17.55;;;2.80;99.90;;;;;;4987858;28;20121;-70
2023/01/29 08:58:18;;;;;;;30.73;17.92;;;2.70;99.90;;;;;;4971398;28;20046;-70
2023/01/29 09:00:43;;;;;;;29.98;17.48;;;2.70;99.90;;;;;;4967784;28;20045;-70
2023/01/29 09:03:09;;;;;;;29.00;17.70;;;2.70;99.90;;;;;;4986984;28;20125;-70
2023/01/29 09:05:37;;;;;;;31.80;18.23;;;2.70;99.90;;;;;;4981433;28;20052;-70
2023/01/29 09:08:04;;;;;;;33.25;18.60;;;2.70;99.90;;;;;;4988168;28;20053;-70
2023/01/29 09:10:30;;;;;;;27.30;17.73;;;2.70;99.90;;;;;;4988686;28;20078;-70
2023/01/29 09:12:56;;;;;;;29.35;17.55;;;2.70;99.90;;;;;;4984982;28;20105;-70
2023/01/29 09:15:22;;;;;;;29.10;16.65;;;2.70;99.90;;;;;;4986948;28;20037;-70
2023/01/29 09:17:48;;;;;;;33.40;18.88;;;2.70;99.90;;;;;;4986670;28;20097;-70
2023/01/29 09:20:14;;;;;;;30.58;17.70;;;2.80;99.90;;;;;;4987024;28;20170;-70
2023/01/29 09:22:40;;;;;;;33.10;19.40;;;2.80;99.90;;;;;;4987684;28;20398;-70
2023/01/29 09:25:07;;;;;;;31.17;17.40;;;2.80;99.90;;;;;;4970924;28;20038;-70
2023/01/29 09:27:32;;;;;;;28.30;17.45;;;2.80;99.90;;;;;;4962082;28;20121;-70
2023/01/29 09:29:58;;;;;;;30.65;17.85;;;2.80;99.90;;;;;;4988277;28;20124;-70
2023/01/29 09:32:24;;;;;;;33.50;17.95;;;2.90;99.90;;;;;;4986423;28;20047;-70
2023/01/29 09:34:50;;;;;;;31.65;19.23;;;3.00;99.90;;;;;;4970290;28;20046;-70
2023/01/29 09:37:21;;;;;;;33.72;18.52;;;3.00;99.90;;;;;;4973447;28;20065;-70
2023/01/29 09:39:50;;;;;;;28.07;17.37;;;3.00;99.90;;;;;;4988947;28;20041;-70
2023/01/29 09:42:26;;;;;;;29.65;18.20;;;3.00;99.90;;;;;;5003783;28;20192;-70
2023/01/29 09:45:04;;;;;;;32.95;18.00;;;3.00;99.90;;;;;;4972987;28;20070;-70
2023/01/29 09:47:33;;;;;;;29.52;16.52;;;3.10;99.90;;;;;;5004807;28;20501;-70
2023/01/29 09:50:05;;;;;;;31.95;19.55;;;3.20;99.90;;;;;;4968816;28;20370;-70
2023/01/29 09:52:40;;;;;;;32.65;18.48;;;3.10;99.90;;;;;;4992664;28;20426;-70
2023/01/29 09:55:17;;;;;;;27.88;17.83;;;3.10;99.90;;;;;;4965497;28;20045;-70
2023/01/29 09:57:50;;;;;;;29.70;17.42;;;3.10;99.90;;;;;;4991818;28;20057;-70
2023/01/29 10:00:38;;;;;;;31.48;18.90;;;3.20;99.90;;;;;;5000392;28;20061;-70
2023/01/29 10:03:55;;;;;;;30.00;17.63;;;3.20;99.90;;;;;;4978879;28;20045;-70
2023/01/29 10:06:58;;;;;;;28.63;17.02;;;3.30;99.90;;;;;;4950672;28;20454;-70
2023/01/29 10:09:42;;;;;;;33.22;17.95;;;3.30;99.90;;;;;;4972158;28;20371;-70
2023/01/29 10:12:45;;;;;;;27.75;16.75;;;3.40;99.90;;;;;;4992440;28;20046;-70
2023/01/29 10:15:25;;;;;;;28.63;16.98;;;3.50;99.90;;;;;;4990234;28;20045;-70
2023/01/29 10:18:13;;;;;;;29.45;18.75;;;3.60;99.90;;;;;;4987310;28;20037;-70
2023/01/29 10:21:03;;;;;;;29.95;17.70;;;3.60;99.90;;;;;;4988765;28;20042;-70
2023/01/29 10:23:52;;;;;;;26.75;17.25;;;3.70;99.90;;;;;;5006238;28;20049;-70
2023/01/29 10:26:22;;;;;;;30.15;18.60;;;3.70;99.90;;;;;;4990670;28;20037;-70
2023/01/29 10:28:51;;;;;;;29.10;18.00;;;3.70;99.90;;;;;;4992999;28;20046;-70
2023/01/29 10:31:23;;;;;;;31.88;18.50;;;3.70;99.90;;;;;;4972153;28;20491;-70
2023/01/29 10:34:13;;;;;;;31.92;19.75;;;3.70;99.90;;;;;;5001146;28;20490;-70
2023/01/29 10:36:45;;;;;;;28.08;18.95;;;3.70;99.90;;;;;;4986318;28;20033;-70
2023/01/29 10:39:19;;;;;;;31.40;17.95;;;3.70;99.90;;;;;;4972042;28;20518;-70
2023/01/29 10:42:04;;;;;;;29.98;18.40;;;3.70;99.90;;;;;;4980976;28;20217;-70
2023/01/29 10:44:55;;;;;;;31.88;19.33;;;3.70;99.90;;;;;;5014653;28;20050;-70
2023/01/29 10:47:29;;;;;;;30.95;19.23;;;3.60;99.90;;;;;;4995216;28;20376;-70
2023/01/29 10:50:19;;;;;;;34.67;19.08;;;3.60;99.90;;;;;;4974986;28;20046;-70
2023/01/29 10:52:54;;;;;;;29.88;18.60;;;3.60;99.90;;;;;;4996302;28;20046;-70
2023/01/29 10:55:56;;;;;;;31.77;17.92;;;3.60;99.90;;;;;;4980016;28;20061;-71
2023/01/29 10:58:43;;;;;;;28.98;18.30;;;3.70;99.90;;;;;;4992628;28;20044;-70
2023/01/29 11:01:10;;;;;;;30.60;18.85;;;3.70;99.90;;;;;;4978083;28;20511;-70
2023/01/29 11:03:35;;;;;;;31.83;18.25;;;3.70;99.90;;;;;;4962242;28;20038;-70
2023/01/29 11:06:19;;;;;;;24.85;16.55;;;3.70;99.90;;;;;;4962878;28;20048;-70
2023/01/29 11:08:50;;;;;;;33.35;18.60;;;3.60;99.90;;;;;;4978217;28;20038;-70
2023/01/29 11:11:20;;;;;;;31.73;19.73;;;3.60;99.90;;;;;;4990782;28;20548;-70
2023/01/29 11:14:07;;;;;;;29.48;17.25;;;3.70;99.90;;;;;;4977130;28;20061;-70
2023/01/29 11:16:46;;;;;;;33.05;18.17;;;3.70;99.90;;;;;;4990703;28;20073;-70
2023/01/29 11:19:12;;;;;;;27.85;18.25;;;3.70;99.90;;;;;;4990155;28;20074;-70
2023/01/29 11:21:58;;;;;;;30.63;17.55;;;3.60;99.90;;;;;;4990664;28;20046;-70
2023/01/29 11:24:24;;;;;;;29.83;17.15;;;3.70;99.90;;;;;;4989935;28;20395;-70
2023/01/29 11:26:53;;;;;;;29.48;17.17;;;3.70;99.90;;;;;;4991382;28;20046;-71
2023/01/29 11:29:44;;;;;;;30.25;18.52;;;3.70;99.90;;;;;;5011458;28;20038;-70
2023/01/29 11:32:22;;;;;;;30.38;19.17;;;3.70;99.90;;;;;;4992341;28;20053;-70
2023/01/29 11:35:05;;;;;;;30.70;18.92;;;3.70;99.90;;;;;;4990231;28;20025;-70
2023/01/29 11:37:36;;;;;;;30.77;18.27;;;3.80;99.90;;;;;;4989228;28;20065;-70
2023/01/29 11:40:33;;;;;;;30.77;18.50;;;3.80;99.90;;;;;;4994139;28;20105;-71
2023/01/29 11:43:12;;;;;;;27.90;16.95;;;3.80;99.90;;;;;;4986710;28;20081;-70
2023/01/29 11:45:40;;;;;;;31.65;18.13;;;3.90;99.90;;;;;;4985481;28;20689;-70
2023/01/29 11:48:19;;;;;;;32.53;19.55;;;3.90;99.90;;;;;;4968758;28;20034;-70
2023/01/29 11:51:00;;;;;;;32.30;19.45;;;3.90;99.90;;;;;;4985014;28;20089;-70
2023/01/29 11:53:36;;;;;;;30.90;19.13;;;3.90;99.90;;;;;;4988496;28;20524;-70
2023/01/29 11:56:22;;;;;;;31.77;17.05;;;4.00;99.90;;;;;;4965550;28;20064;-70
2023/01/29 11:58:50;;;;;;;28.33;17.40;;;4.30;99.90;;;;;;4963423;28;20069;-71
2023/01/29 12:01:23;;;;;;;33.67;18.73;;;4.10;99.90;;;;;;4980304;28;20092;-70
2023/01/29 12:03:52;;;;;;;31.45;16.83;;;4.10;99.90;;;;;;4961540;28;20042;-70
2023/01/29 12:06:39;;;;;;;33.42;19.27;;;4.10;99.90;;;;;;4980779;28;20068;-71
2023/01/29 12:09:12;;;;;;;27.33;16.38;;;4.10;99.90;;;;;;4995450;28;20737;-70
2023/01/29 12:11:38;;;;;;;31.33;19.08;;;4.10;99.90;;;;;;4964857;28;20317;-71
2023/01/29 12:14:22;;;;;;;28.48;16.17;;;4.10;99.90;;;;;;4947636;28;21294;-71
2023/01/29 12:17:00;;;;;;;29.58;18.02;;;4.10;99.90;;;;;;4979651;28;20147;-70
2023/01/29 12:19:50;;;;;;;33.22;18.95;;;4.10;99.90;;;;;;4964739;28;20060;-70
2023/01/29 12:22:55;;;;;;;28.50;17.83;;;4.00;99.90;;;;;;4963362;28;20546;-70
2023/01/29 12:25:43;;;;;;;32.75;18.80;;;4.00;99.90;;;;;;4938817;28;20078;-70
2023/01/29 12:28:41;;;;;;;34.38;19.20;;;4.00;99.90;;;;;;4977795;28;20049;-70
2023/01/29 12:31:33;;;;;;;38.72;20.48;;;3.90;99.90;;;;;;4995826;28;20495;-71
2023/01/29 12:34:11;;;;;;;36.28;20.73;;;3.90;99.90;;;;;;4994572;28;20057;-70
2023/01/29 12:36:59;;;;;;;36.60;20.10;;;4.00;99.90;;;;;;4977707;28;20050;-71
2023/01/29 12:39:25;;;;;;;31.83;18.73;;;3.90;99.90;;;;;;4979599;28;20503;-70
2023/01/29 12:42:02;;;;;;;32.45;19.17;;;3.90;99.90;;;;;;4980161;28;20057;-70
2023/01/29 12:44:47;;;;;;;32.03;19.83;;;4.00;99.90;;;;;;4978613;28;20319;-70
2023/01/29 12:47:32;;;;;;;31.42;18.27;;;3.90;99.90;;;;;;4979559;28;20054;-70
2023/01/29 12:50:04;;;;;;;33.60;19.60;;;3.80;99.90;;;;;;4978142;28;20132;-70
2023/01/29 12:52:52;;;;;;;34.65;20.08;;;3.80;99.90;;;;;;4996376;28;20067;-70
2023/01/29 12:55:26;;;;;;;36.60;20.55;;;3.80;99.90;;;;;;4976291;28;20038;-71
2023/01/29 12:58:12;;;;;;;35.35;20.60;;;3.80;99.90;;;;;;4980377;28;20050;-70
2023/01/29 13:00:42;;;;;;;35.53;21.30;;;3.80;99.90;;;;;;4960388;28;20050;-71
2023/01/29 13:03:43;;;;;;;39.70;21.98;;;3.70;99.90;;;;;;4962670;28;20033;-70
2023/01/29 13:06:14;;;;;;;35.78;21.63;;;3.70;99.90;;;;;;4977771;28;20054;-70
2023/01/29 13:09:00;;;;;;;33.83;19.08;;;3.60;99.90;;;;;;4979353;28;20049;-70
2023/01/29 13:11:53;;;;;;;39.53;20.48;;;3.60;99.90;;;;;;4962263;28;20073;-70
2023/01/29 13:14:27;;;;;;;42.92;21.27;;;3.60;99.90;;;;;;4978130;28;20049;-70
2023/01/29 13:17:26;;;;;;;35.28;20.85;;;3.60;99.90;;;;;;4960864;28;20049;-71
2023/01/29 13:19:56;;;;;;;38.65;21.10;;;3.60;99.90;;;;;;4944131;28;20038;-70
2023/01/29 13:22:26;;;;;;;39.28;21.10;;;3.60;99.90;;;;;;4974019;28;20057;-71
2023/01/29 13:24:52;;;;;;;43.72;22.48;;;3.50;99.90;;;;;;4956901;28;20092;-70
2023/01/29 13:27:25;;;;;;;37.55;20.52;;;3.50;99.90;;;;;;4956656;28;20525;-70
2023/01/29 13:29:51;;;;;;;;;;;3.40;99.90;;;;;;4959104;28;20065;-71
2023/01/29 13:32:28;;;;;;;36.33;19.52;;;3.40;99.90;;;;;;4957497;28;19921;-70